createdAt,value
2022-10-18T00:02:21.831Z,102626.88
2022-10-18T00:04:48.349Z,102623.41
2022-10-18T00:07:14.728Z,102612.91
2022-10-18T00:09:41.232Z,102615.53
2022-10-18T00:12:07.902Z,102612.91
2022-10-18T00:14:34.338Z,102611.06
2022-10-18T00:17:00.799Z,102618.94
2022-10-18T00:19:29.265Z,102619.72
2022-10-18T00:21:56.186Z,102616.19
2022-10-18T00:24:22.624Z,102615.25
2022-10-18T00:26:49.153Z,102618.03
2022-10-18T00:29:16.544Z,102616.25
2022-10-18T00:31:43.958Z,102621.44
2022-10-18T00:34:13.826Z,102624.00
2022-10-18T00:36:41.203Z,102621.34
2022-10-18T00:39:09.417Z,102626.75
2022-10-18T00:41:37.891Z,102630.22
2022-10-18T00:44:27.224Z,102630.22
2022-10-18T00:47:08.250Z,102627.69
2022-10-18T00:49:39.597Z,102628.63
2022-10-18T00:52:11.400Z,102621.63
2022-10-18T00:54:40.678Z,102621.63
2022-10-18T00:57:07.722Z,102626.03
2022-10-18T00:59:35.080Z,102629.50
2022-10-18T01:02:28.809Z,102635.47
2022-10-18T01:04:55.510Z,102639.97
2022-10-18T01:07:24.770Z,102639.13
2022-10-18T01:10:03.455Z,102635.56
2022-10-18T01:12:59.342Z,102643.50
2022-10-18T01:15:31.903Z,102642.75
2022-10-18T01:18:16.412Z,102641.03
2022-10-18T01:21:04.339Z,102641.94
2022-10-18T01:23:44.959Z,102638.53
2022-10-18T01:26:33.046Z,102638.69
2022-10-18T01:29:28.269Z,102635.25
2022-10-18T01:32:02.482Z,102652.88
2022-10-18T01:34:33.898Z,102659.84
2022-10-18T01:37:04.864Z,102657.97
2022-10-18T01:39:36.319Z,102654.44
2022-10-18T01:42:06.696Z,102656.22
2022-10-18T01:44:34.915Z,102658.84
2022-10-18T01:47:01.672Z,102656.28
2022-10-18T01:49:28.111Z,102656.28
2022-10-18T01:51:54.649Z,102653.59
2022-10-18T01:54:29.580Z,102640.50
2022-10-18T01:57:09.387Z,102641.44
2022-10-18T02:00:10.163Z,102643.28
2022-10-18T02:02:48.587Z,102643.41
2022-10-18T02:05:31.586Z,102641.84
2022-10-18T02:08:19.035Z,102637.63
2022-10-18T02:10:54.710Z,102640.31
2022-10-18T02:13:23.448Z,102648.41
2022-10-18T02:15:56.360Z,102649.25
2022-10-18T02:18:34.217Z,102654.47
2022-10-18T02:21:03.411Z,102656.28
2022-10-18T02:23:31.614Z,102651.03
2022-10-18T02:25:58.004Z,102657.34
2022-10-18T02:31:04.737Z,102646.97
2022-10-18T02:34:10.781Z,102656.63
2022-10-18T02:36:45.305Z,102643.63
2022-10-18T02:39:15.503Z,102647.22
2022-10-18T02:41:42.628Z,102653.59
2022-10-18T02:44:09.889Z,102655.50
2022-10-18T02:46:36.980Z,102647.72
2022-10-18T02:49:03.471Z,102647.94
2022-10-18T02:51:29.873Z,102658.69
2022-10-18T02:53:56.304Z,102659.63
2022-10-18T02:56:22.773Z,102660.59
2022-10-18T02:58:49.186Z,102659.88
2022-10-18T03:01:15.707Z,102654.75
2022-10-18T03:03:42.188Z,102641.69
2022-10-18T03:06:08.581Z,102644.47
2022-10-18T03:08:36.337Z,102649.72
2022-10-18T03:11:02.908Z,102647.22
2022-10-18T03:15:56.690Z,102653.47
2022-10-18T03:18:23.084Z,102657.88
2022-10-18T03:20:49.459Z,102657.94
2022-10-18T03:23:15.923Z,102651.88
2022-10-18T03:25:45.631Z,102651.88
2022-10-18T03:28:12.880Z,102656.34
2022-10-18T03:30:39.298Z,102654.66
2022-10-18T03:33:06.364Z,102664.25
2022-10-18T03:35:32.729Z,102654.69
2022-10-18T03:37:59.190Z,102655.53
2022-10-18T03:40:25.663Z,102660.03
2022-10-18T03:42:52.147Z,102653.97
2022-10-18T03:45:18.607Z,102654.09
2022-10-18T03:47:45.002Z,102650.69
2022-10-18T03:50:11.491Z,102653.53
2022-10-18T03:52:37.888Z,102659.00
2022-10-18T03:55:04.980Z,102660.91
2022-10-18T03:57:31.393Z,102665.41
2022-10-18T03:59:58.439Z,102659.31
2022-10-18T04:02:25.065Z,102651.56
2022-10-18T04:04:52.363Z,102649.91
2022-10-18T04:07:18.775Z,102648.31
2022-10-18T04:09:45.148Z,102656.31
2022-10-18T04:12:11.637Z,102659.97
2022-10-18T04:14:38.014Z,102653.94
2022-10-18T04:17:04.817Z,102650.59
2022-10-18T04:19:31.355Z,102651.69
2022-10-18T04:21:57.738Z,102657.16
2022-10-18T04:24:24.267Z,102660.81
2022-10-18T04:26:51.337Z,102653.28
2022-10-18T04:29:17.748Z,102655.16
2022-10-18T04:31:44.193Z,102651.81
2022-10-18T04:34:10.985Z,102650.22
2022-10-18T04:36:37.394Z,102652.94
2022-10-18T04:39:03.895Z,102654.94
2022-10-18T04:41:30.372Z,102654.31
2022-10-18T04:43:56.940Z,102660.66
2022-10-18T04:46:23.544Z,102660.72
2022-10-18T04:48:49.953Z,102655.56
2022-10-18T04:51:16.393Z,102657.41
2022-10-18T04:53:42.799Z,102659.31
2022-10-18T04:56:09.267Z,102656.88
2022-10-18T04:58:35.726Z,102658.78
2022-10-18T05:01:05.603Z,102658.03
2022-10-18T05:03:32.243Z,102667.69
2022-10-18T05:06:03.176Z,102660.00
2022-10-18T05:08:30.888Z,102662.69
2022-10-18T05:10:57.403Z,102663.56
2022-10-18T05:13:23.979Z,102665.50
2022-10-18T05:15:50.517Z,102673.38
2022-10-18T05:18:17.013Z,102673.28
2022-10-18T05:20:43.829Z,102673.28
2022-10-18T05:23:10.838Z,102680.41
2022-10-18T05:25:44.661Z,102680.38
2022-10-18T05:28:34.012Z,102686.44
2022-10-18T05:31:02.618Z,102692.53
2022-10-18T05:33:29.200Z,102693.56
2022-10-18T05:35:55.719Z,102693.59
2022-10-18T05:38:22.290Z,102690.94
2022-10-18T05:40:49.083Z,102688.25
2022-10-18T05:43:15.570Z,102694.25
2022-10-18T05:45:47.750Z,102693.38
2022-10-18T05:48:14.353Z,102700.47
2022-10-18T05:50:40.750Z,102709.34
2022-10-18T05:53:12.379Z,102701.44
2022-10-18T05:55:45.020Z,102705.69
2022-10-18T05:58:11.463Z,102705.63
2022-10-18T06:00:38.806Z,102711.69
2022-10-18T06:03:05.243Z,102717.88
2022-10-18T06:05:31.650Z,102720.59
2022-10-18T06:07:58.140Z,102739.81
2022-10-18T06:10:24.890Z,102735.47
2022-10-18T06:12:51.446Z,102731.16
2022-10-18T06:15:17.868Z,102732.06
2022-10-18T06:17:44.370Z,102736.44
2022-10-18T06:20:10.829Z,102748.66
2022-10-18T06:22:37.347Z,102752.94
2022-10-18T06:25:03.928Z,102739.06
2022-10-18T06:27:31.871Z,102747.75
2022-10-18T06:29:58.717Z,102756.50
2022-10-18T06:32:25.344Z,102761.66
2022-10-18T06:34:51.858Z,102759.03
2022-10-18T06:37:18.478Z,102758.25
2022-10-18T06:39:44.840Z,102759.09
2022-10-18T06:42:11.264Z,102766.03
2022-10-18T06:44:37.663Z,102769.47
2022-10-18T06:47:04.064Z,102773.88
2022-10-18T06:49:30.507Z,102781.72
2022-10-18T06:51:56.893Z,102783.31
2022-10-18T06:54:23.349Z,102782.31
2022-10-18T06:56:49.696Z,102784.00
2022-10-18T06:59:16.185Z,102799.63
2022-10-18T07:01:43.495Z,102796.13
2022-10-18T07:04:10.141Z,102801.19
2022-10-18T07:06:36.633Z,102805.31
2022-10-18T07:09:03.912Z,102807.03
2022-10-18T07:11:30.615Z,102808.75
2022-10-18T07:14:04.803Z,102818.13
2022-10-18T07:16:32.458Z,102812.63
2022-10-18T07:18:58.880Z,102804.56
2022-10-18T07:21:26.294Z,102821.03
2022-10-18T07:23:53.118Z,102810.56
2022-10-18T07:26:29.153Z,102815.75
2022-10-18T07:29:02.262Z,102816.53
2022-10-18T07:31:29.287Z,102817.41
2022-10-18T07:33:55.728Z,102829.81
2022-10-18T07:36:22.529Z,102838.63
2022-10-18T07:38:49.589Z,102834.25
2022-10-18T07:41:16.065Z,102834.91
2022-10-18T07:43:47.301Z,102842.56
2022-10-18T07:46:15.052Z,102840.59
2022-10-18T07:48:42.187Z,102841.34
2022-10-18T07:51:09.271Z,102841.19
2022-10-18T07:53:36.269Z,102839.41
2022-10-18T07:56:07.282Z,102858.38
2022-10-18T07:58:36.000Z,102860.06
2022-10-18T08:01:07.213Z,102849.47
2022-10-18T08:03:34.340Z,102856.19
2022-10-18T08:06:01.301Z,102858.59
2022-10-18T08:08:28.529Z,102857.59
2022-10-18T08:10:55.391Z,102864.50
2022-10-18T08:13:22.301Z,102862.56
2022-10-18T08:15:48.825Z,102870.22
2022-10-18T08:18:15.356Z,102867.47
2022-10-18T08:20:45.598Z,102873.28
2022-10-18T08:23:12.324Z,102866.97
2022-10-18T08:25:38.739Z,102868.66
2022-10-18T08:28:05.303Z,102874.50
2022-10-18T08:30:31.685Z,102876.16
2022-10-18T08:32:58.224Z,102871.56
2022-10-18T08:35:24.756Z,102879.22
2022-10-18T08:37:51.260Z,102867.78
2022-10-18T08:40:17.743Z,102869.31
2022-10-18T08:42:57.910Z,102868.91
2022-10-18T08:45:40.971Z,102875.56
2022-10-18T08:48:19.308Z,102873.44
2022-10-18T08:50:46.699Z,102867.19
2022-10-18T08:53:28.768Z,102867.78
2022-10-18T08:56:03.691Z,102860.66
2022-10-18T08:58:33.335Z,102868.22
2022-10-18T09:01:15.587Z,102872.38
2022-10-18T09:04:24.344Z,102864.09
2022-10-18T09:07:19.824Z,102864.28
2022-10-18T09:10:17.075Z,102860.09
2022-10-18T09:13:00.092Z,102874.56
2022-10-18T09:15:45.186Z,102878.94
2022-10-18T09:18:33.363Z,102882.19
2022-10-18T09:21:09.441Z,102876.72
2022-10-18T09:23:49.312Z,102867.31
2022-10-18T09:26:24.154Z,102885.19
2022-10-18T09:29:00.767Z,102893.19
2022-10-18T09:31:56.055Z,102889.22
2022-10-18T09:34:36.476Z,102888.53
2022-10-18T09:37:03.767Z,102890.34
2022-10-18T09:39:33.658Z,102900.38
2022-10-18T09:42:05.504Z,102895.69
2022-10-18T09:44:39.327Z,102897.13
2022-10-18T09:47:16.891Z,102889.88
2022-10-18T09:49:47.384Z,102902.69
2022-10-18T09:52:20.930Z,102900.47
2022-10-18T09:54:55.012Z,102892.00
2022-10-18T09:57:25.392Z,102894.47
2022-10-18T09:59:51.761Z,102900.13
2022-10-18T10:02:23.140Z,102902.47
2022-10-18T10:04:51.204Z,102897.94
2022-10-18T10:07:34.850Z,102898.50
2022-10-18T10:10:23.589Z,102901.84
2022-10-18T10:13:07.492Z,102902.34
2022-10-18T10:15:38.109Z,102894.72
2022-10-18T10:18:21.794Z,102900.72
2022-10-18T10:20:55.159Z,102905.03
2022-10-18T10:23:32.821Z,102909.06
2022-10-18T10:26:02.626Z,102912.25
2022-10-18T10:28:35.358Z,102917.22
2022-10-18T10:31:30.039Z,102916.16
2022-10-18T10:34:06.786Z,102912.34
2022-10-18T10:36:34.092Z,102911.59
2022-10-18T10:39:09.488Z,102920.56
2022-10-18T10:41:35.882Z,102921.75
2022-10-18T10:44:15.331Z,102923.28
2022-10-18T10:46:41.781Z,102915.97
2022-10-18T10:49:46.020Z,102921.66
2022-10-18T10:52:36.911Z,102930.91
2022-10-18T10:55:23.581Z,102926.31
2022-10-18T10:57:52.417Z,102928.94
2022-10-18T11:00:42.712Z,102934.13
2022-10-18T11:03:29.071Z,102933.09
2022-10-18T11:05:57.765Z,102926.22
2022-10-18T11:08:28.344Z,102930.47
2022-10-18T11:11:15.332Z,102932.75
2022-10-18T11:14:31.589Z,102932.59
2022-10-18T11:17:23.530Z,102941.31
2022-10-18T11:20:02.707Z,102932.38
2022-10-18T11:22:35.061Z,102929.63
2022-10-18T11:25:03.887Z,102933.06
2022-10-18T11:27:57.460Z,102927.63
2022-10-18T11:30:45.450Z,102922.19
2022-10-18T11:33:33.655Z,102922.03
2022-10-18T11:36:17.012Z,102916.22
2022-10-18T11:38:53.962Z,102919.66
2022-10-18T11:41:58.521Z,102929.91
2022-10-18T11:44:43.650Z,102925.72
2022-10-18T11:47:14.928Z,102928.16
2022-10-18T11:50:11.752Z,102927.69
2022-10-18T11:52:53.351Z,102928.63
2022-10-18T11:55:41.751Z,102921.81
2022-10-18T11:58:08.032Z,102930.59
2022-10-18T12:01:12.141Z,102931.75
2022-10-18T12:03:50.952Z,102918.31
2022-10-18T12:06:23.771Z,102922.22
2022-10-18T12:09:15.574Z,102920.53
2022-10-18T12:11:54.862Z,102924.19
2022-10-18T12:14:33.327Z,102923.44
2022-10-18T12:17:35.833Z,102922.47
2022-10-18T12:19:53.039Z,102916.09
2022-10-18T12:22:44.641Z,102907.06
2022-10-18T12:25:16.742Z,102902.44
2022-10-18T12:27:56.830Z,102908.53
2022-10-18T12:30:31.981Z,102913.47
2022-10-18T12:33:28.139Z,102909.19
2022-10-18T12:36:00.676Z,102907.00
2022-10-18T12:38:31.424Z,102911.22
2022-10-18T12:40:59.159Z,102908.53
2022-10-18T12:43:36.896Z,102907.50
2022-10-18T12:46:12.169Z,102909.28
2022-10-18T12:48:42.587Z,102908.53
2022-10-18T12:51:16.931Z,102900.44
2022-10-18T12:53:46.487Z,102904.94
2022-10-18T12:56:27.972Z,102906.41
2022-10-18T12:59:16.129Z,102913.22
2022-10-18T13:01:51.909Z,102908.09
2022-10-18T13:04:27.512Z,102904.94
2022-10-18T13:07:07.829Z,102895.38
2022-10-18T13:09:39.004Z,102895.13
2022-10-18T13:12:11.280Z,102891.56
2022-10-18T13:14:59.162Z,102884.47
2022-10-18T13:17:54.935Z,102877.31
2022-10-18T13:20:33.346Z,102870.91
2022-10-18T13:23:27.564Z,102878.59
2022-10-18T13:26:13.683Z,102869.72
2022-10-18T13:28:54.444Z,102870.59
2022-10-18T13:31:53.287Z,102872.38
2022-10-18T13:34:20.460Z,102873.28
2022-10-18T13:37:00.303Z,102883.88
2022-10-18T13:39:27.749Z,102878.50
2022-10-18T13:41:57.725Z,102887.91
2022-10-18T13:44:28.090Z,102880.81
2022-10-18T13:46:54.373Z,102893.19
2022-10-18T13:49:38.847Z,102883.19
2022-10-18T13:52:35.155Z,102881.31
2022-10-18T13:55:24.856Z,102890.34
2022-10-18T13:58:21.925Z,102882.69
2022-10-18T14:01:14.450Z,102889.84
2022-10-18T14:04:00.193Z,102893.94
2022-10-18T14:06:40.732Z,102887.69
2022-10-18T14:09:40.274Z,102875.53
2022-10-18T14:12:35.911Z,102892.69
2022-10-18T14:15:07.565Z,102898.28
2022-10-18T14:17:41.725Z,102889.34
2022-10-18T14:20:14.855Z,102889.34
2022-10-18T14:22:48.162Z,102895.13
2022-10-18T14:25:29.574Z,102908.53
2022-10-18T14:28:31.584Z,102899.97
2022-10-18T14:31:12.445Z,102895.75
2022-10-18T14:33:57.197Z,102901.75
2022-10-18T14:36:27.874Z,102901.16
2022-10-18T14:38:58.903Z,102895.25
2022-10-18T14:41:30.613Z,102905.97
2022-10-18T14:44:15.104Z,102913.16
2022-10-18T14:46:52.679Z,102908.19
2022-10-18T14:49:20.540Z,102905.56
2022-10-18T14:51:59.020Z,102905.81
2022-10-18T14:54:37.047Z,102905.28
2022-10-18T14:57:05.793Z,102909.00
2022-10-18T14:59:51.604Z,102909.19
2022-10-18T15:02:26.103Z,102926.09
2022-10-18T15:05:05.783Z,102917.41
2022-10-18T15:07:33.305Z,102925.63
2022-10-18T15:10:02.817Z,102929.34
2022-10-18T15:12:36.983Z,102922.69
2022-10-18T15:15:17.064Z,102917.56
2022-10-18T15:17:45.106Z,102922.16
2022-10-18T15:20:26.477Z,102925.00
2022-10-18T15:22:53.313Z,102918.31
2022-10-18T15:25:34.452Z,102926.53
2022-10-18T15:28:01.708Z,102924.16
2022-10-18T15:30:42.940Z,102916.63
2022-10-18T15:33:21.837Z,102912.56
2022-10-18T15:35:48.447Z,102917.22
2022-10-18T15:38:24.249Z,102917.50
2022-10-18T15:40:51.063Z,102918.66
2022-10-18T15:43:23.516Z,102921.38
2022-10-18T15:46:01.555Z,102922.63
2022-10-18T15:48:35.992Z,102930.00
2022-10-18T15:51:07.992Z,102930.25
2022-10-18T15:53:54.635Z,102941.00
2022-10-18T15:56:35.439Z,102935.22
2022-10-18T15:59:04.938Z,102938.84
2022-10-18T16:01:44.333Z,102941.81
2022-10-18T16:04:18.652Z,102935.78
2022-10-18T16:06:45.197Z,102940.41
2022-10-18T16:09:16.690Z,102936.25
2022-10-18T16:11:43.914Z,102934.13
2022-10-18T16:14:10.404Z,102940.47
2022-10-18T16:16:37.079Z,102939.66
2022-10-18T16:19:03.725Z,102940.09
2022-10-18T16:21:33.552Z,102946.69
2022-10-18T16:24:00.006Z,102946.03
2022-10-18T16:26:27.285Z,102943.03
2022-10-18T16:28:54.570Z,102943.41
2022-10-18T16:31:26.507Z,102945.38
2022-10-18T16:33:53.910Z,102941.56
2022-10-18T16:36:23.011Z,102941.13
2022-10-18T16:38:49.845Z,102941.41
2022-10-18T16:41:16.726Z,102954.03
2022-10-18T16:43:45.459Z,102950.69
2022-10-18T16:46:24.225Z,102948.28
2022-10-18T16:48:51.579Z,102950.38
2022-10-18T16:51:18.001Z,102955.06
2022-10-18T16:53:44.612Z,102958.78
2022-10-18T16:56:22.759Z,102959.22
2022-10-18T16:58:49.805Z,102966.59
2022-10-18T17:01:18.688Z,102969.44
2022-10-18T17:03:46.360Z,102977.31
2022-10-18T17:06:27.640Z,102981.06
2022-10-18T17:08:55.111Z,102985.63
2022-10-18T17:11:23.545Z,102985.91
2022-10-18T17:13:50.351Z,102991.47
2022-10-18T17:19:02.871Z,102993.50
2022-10-18T17:21:29.529Z,102985.81
2022-10-18T17:24:00.443Z,102989.47
2022-10-18T17:26:29.324Z,103000.06
2022-10-18T17:29:00.030Z,102994.19
2022-10-18T17:31:27.774Z,103001.34
2022-10-18T17:33:58.471Z,103014.63
2022-10-18T17:36:25.458Z,103007.91
2022-10-18T17:38:55.902Z,103012.53
2022-10-18T17:41:22.327Z,103005.75
2022-10-18T17:43:48.992Z,102997.88
2022-10-18T17:46:16.143Z,103003.13
2022-10-18T17:48:43.097Z,103007.63
2022-10-18T17:51:11.437Z,103000.88
2022-10-18T17:53:37.808Z,103001.16
2022-10-18T17:56:05.256Z,103005.69
2022-10-18T17:58:32.220Z,103012.84
2022-10-18T18:01:11.311Z,103013.06
2022-10-18T18:03:37.774Z,103014.91
2022-10-18T18:06:23.190Z,103023.81
2022-10-18T18:08:50.402Z,103033.56
2022-10-18T18:11:18.454Z,103035.50
2022-10-18T18:13:44.985Z,103030.44
2022-10-18T18:16:12.898Z,103036.72
2022-10-18T18:18:39.433Z,103026.47
2022-10-18T18:21:05.903Z,103038.91
2022-10-18T18:23:32.314Z,103034.59
2022-10-18T18:25:58.716Z,103037.47
2022-10-18T18:28:25.198Z,103031.56
2022-10-18T18:30:51.652Z,103034.66
2022-10-18T18:33:18.005Z,103038.38
2022-10-18T18:35:44.363Z,103031.66
2022-10-18T18:38:10.788Z,103030.09
2022-10-18T18:40:37.119Z,103040.84
2022-10-18T18:43:12.403Z,103040.09
2022-10-18T18:45:52.134Z,103047.13
2022-10-18T18:48:19.888Z,103046.34
2022-10-18T18:50:51.206Z,103048.25
2022-10-18T18:53:18.321Z,103056.28
2022-10-18T18:55:45.024Z,103053.75
2022-10-18T18:58:11.495Z,103048.53
2022-10-18T19:00:43.372Z,103058.22
2022-10-18T19:03:11.899Z,103057.50
2022-10-18T19:05:38.290Z,103054.88
2022-10-18T19:08:05.229Z,103055.69
2022-10-18T19:10:31.672Z,103059.22
2022-10-18T19:12:58.214Z,103055.75
2022-10-18T19:15:24.556Z,103057.53
2022-10-18T19:17:51.217Z,103049.81
2022-10-18T19:20:17.740Z,103058.66
2022-10-18T19:22:45.391Z,103060.50
2022-10-18T19:25:11.919Z,103063.09
2022-10-18T19:27:38.515Z,103062.41
2022-10-18T19:30:09.189Z,103057.28
2022-10-18T19:32:35.629Z,103058.16
2022-10-18T19:35:02.264Z,103060.91
2022-10-18T19:37:28.731Z,103057.56
2022-10-18T19:39:55.107Z,103062.81
2022-10-18T19:42:26.133Z,103061.97
2022-10-18T19:44:53.846Z,103059.47
2022-10-18T19:47:20.619Z,103054.31
2022-10-18T19:49:47.937Z,103055.25
2022-10-18T19:52:14.406Z,103051.81
2022-10-18T19:54:41.057Z,103043.28
2022-10-18T19:57:07.814Z,103050.47
2022-10-18T19:59:36.083Z,103050.59
2022-10-18T20:02:04.583Z,103048.97
2022-10-18T20:04:34.267Z,103056.81
2022-10-18T20:07:02.573Z,103051.69
2022-10-18T20:09:29.211Z,103058.63
2022-10-18T20:11:55.646Z,103057.81
2022-10-18T20:14:22.222Z,103063.13
2022-10-18T20:16:48.636Z,103058.94
2022-10-18T20:19:15.076Z,103063.41
2022-10-18T20:21:41.455Z,103069.66
2022-10-18T20:24:09.194Z,103074.16
2022-10-18T20:26:35.866Z,103065.56
2022-10-18T20:29:03.581Z,103063.88
2022-10-18T20:31:32.370Z,103066.56
2022-10-18T20:34:01.283Z,103069.28
2022-10-18T20:36:29.793Z,103066.72
2022-10-18T20:38:56.480Z,103077.16
2022-10-18T20:41:26.757Z,103073.75
2022-10-18T20:43:55.396Z,103074.66
2022-10-18T20:46:22.728Z,103063.34
2022-10-18T20:48:50.697Z,103058.16
2022-10-18T20:51:18.016Z,103065.19
2022-10-18T20:53:45.147Z,103060.06
2022-10-18T20:56:14.045Z,103054.19
2022-10-18T20:58:42.423Z,103055.22
2022-10-18T21:01:18.258Z,103052.78
2022-10-18T21:03:46.699Z,103056.34
2022-10-18T21:06:14.146Z,103047.81
2022-10-18T21:08:41.243Z,103047.00
2022-10-18T21:11:08.331Z,103058.34
2022-10-18T21:13:35.353Z,103056.66
2022-10-18T21:16:03.404Z,103050.56
2022-10-18T21:18:32.238Z,103052.31
2022-10-18T21:21:19.014Z,103042.03
2022-10-18T21:23:45.759Z,103050.75
2022-10-18T21:26:27.300Z,103051.69
2022-10-18T21:28:57.693Z,103049.94
2022-10-18T21:31:29.664Z,103046.50
2022-10-18T21:33:59.188Z,103053.47
2022-10-18T21:36:27.912Z,103051.78
2022-10-18T21:38:54.312Z,103054.44
2022-10-18T21:41:22.966Z,103057.97
2022-10-18T21:43:51.995Z,103060.56
2022-10-18T21:46:20.281Z,103054.50
2022-10-18T21:48:49.390Z,103061.41
2022-10-18T21:51:18.992Z,103059.72
2022-10-18T21:53:47.749Z,103069.41
2022-10-18T21:56:20.173Z,103060.81
2022-10-18T21:58:47.351Z,103066.06
2022-10-18T22:01:43.581Z,103055.66
2022-10-18T22:04:26.624Z,103056.53
2022-10-18T22:06:53.155Z,103053.97
2022-10-18T22:09:21.215Z,103047.97
2022-10-18T22:11:51.586Z,103042.75
2022-10-18T22:14:18.019Z,103042.78
2022-10-18T22:16:44.412Z,103043.66
2022-10-18T22:19:11.255Z,103049.75
2022-10-18T22:21:37.784Z,103047.19
2022-10-18T22:24:06.535Z,103044.63
2022-10-18T22:26:36.106Z,103050.78
2022-10-18T22:29:06.953Z,103045.59
2022-10-18T22:31:35.519Z,103041.31
2022-10-18T22:34:05.150Z,103037.81
2022-10-18T22:36:32.600Z,103040.38
2022-10-18T22:38:59.268Z,103037.78
2022-10-18T22:41:25.654Z,103043.84
2022-10-18T22:43:53.411Z,103038.63
2022-10-18T22:46:20.575Z,103037.81
2022-10-18T22:48:47.878Z,103045.72
2022-10-18T22:51:14.404Z,103037.13
2022-10-18T22:53:41.068Z,103039.81
2022-10-18T22:56:11.160Z,103028.53
2022-10-18T22:58:37.574Z,103034.66
2022-10-18T23:01:06.652Z,103038.16
2022-10-18T23:03:33.451Z,103038.16
2022-10-18T23:06:00.047Z,103030.44
2022-10-18T23:08:27.059Z,103029.53
2022-10-18T23:10:56.753Z,103032.16
2022-10-18T23:13:24.742Z,103034.75
2022-10-18T23:15:51.473Z,103033.03
2022-10-18T23:18:18.172Z,103029.56
2022-10-18T23:20:45.670Z,103020.09
2022-10-18T23:23:12.842Z,103024.47
2022-10-18T23:25:39.342Z,103025.38
2022-10-18T23:28:06.323Z,103024.56
2022-10-18T23:30:32.823Z,103028.09
2022-10-18T23:32:59.341Z,103028.25
2022-10-18T23:35:25.787Z,103034.41
2022-10-18T23:37:52.645Z,103039.59
2022-10-18T23:40:19.157Z,103032.72
2022-10-18T23:42:46.205Z,103037.13
2022-10-18T23:45:12.659Z,103044.94
2022-10-18T23:47:39.089Z,103049.31
2022-10-18T23:50:06.239Z,103044.19
2022-10-18T23:52:32.661Z,103045.94
2022-10-18T23:54:59.179Z,103051.19
2022-10-18T23:57:25.552Z,103044.28
2022-10-18T23:59:51.961Z,103042.56
